createdAt,value
2018-01-24T15:50:02.246Z,995.0932
2018-01-24T15:51:01.803Z,995.0838
2018-01-24T15:52:01.783Z,995.0926
2018-01-24T15:53:01.778Z,995.0703
2018-01-24T15:54:01.791Z,995.1125
2018-01-24T15:55:01.792Z,995.0804
2018-01-24T15:56:01.832Z,995.1102
2018-01-24T15:57:01.788Z,995.1384
2018-01-24T15:58:01.794Z,994.986
2018-01-24T15:59:01.881Z,995.0262
2018-01-24T16:00:01.794Z,994.9991
2018-01-24T16:01:01.800Z,994.9852
2018-01-24T16:02:02.235Z,994.9776
2018-01-24T16:03:01.795Z,994.9836
2018-01-24T16:04:01.803Z,994.9877
2018-01-24T16:05:01.788Z,995.0508
2018-01-24T16:06:01.828Z,994.9509
2018-01-24T16:07:01.791Z,995.0156
2018-01-24T16:08:01.827Z,995.0187
2018-01-24T16:09:01.788Z,994.986
2018-01-24T16:10:01.797Z,994.9877
2018-01-24T16:11:01.800Z,994.9929
2018-01-24T16:12:01.799Z,994.9446
2018-01-24T16:13:01.804Z,995.0351
2018-01-24T16:14:01.847Z,994.966
2018-01-24T16:15:01.803Z,994.9525
2018-01-24T16:16:01.802Z,995.027
2018-01-24T16:17:01.802Z,995.0259
2018-01-24T16:18:01.807Z,994.9665
2018-01-24T16:19:01.807Z,994.9796
2018-01-24T16:20:01.831Z,994.9852
2018-01-24T16:21:01.801Z,994.9701
2018-01-24T16:22:01.865Z,994.9321
2018-01-24T16:23:01.804Z,994.9246
2018-01-24T16:24:01.803Z,995.0149
2018-01-24T16:25:01.808Z,994.9826
2018-01-24T16:26:02.243Z,994.954
2018-01-24T16:27:01.813Z,995.0121
2018-01-24T16:28:01.819Z,994.9457
2018-01-24T16:29:01.810Z,994.9417
2018-01-24T16:30:01.808Z,994.9582
2018-01-24T16:31:01.821Z,995.0018
2018-01-24T16:32:01.943Z,994.9629
2018-01-24T16:33:01.809Z,995.0288
2018-01-24T16:34:01.814Z,994.9015
2018-01-24T16:35:01.808Z,994.9399
2018-01-24T16:36:01.819Z,994.8968
2018-01-24T16:37:01.829Z,994.9073
2018-01-24T16:38:02.047Z,994.9032
2018-01-24T16:39:01.814Z,994.9021
2018-01-24T16:40:01.822Z,994.9227
2018-01-24T16:41:01.824Z,994.8527
2018-01-24T16:42:01.820Z,994.9218
2018-01-24T16:43:01.828Z,994.904
2018-01-24T16:44:01.872Z,994.9176
2018-01-24T16:45:01.830Z,994.8699
2018-01-24T16:46:01.822Z,994.8843
2018-01-24T16:47:01.826Z,994.8582
2018-01-24T16:48:01.824Z,994.7933
2018-01-24T16:49:01.835Z,994.8152
2018-01-24T16:50:02.116Z,994.784
2018-01-24T16:51:01.830Z,994.7736
2018-01-24T16:52:01.865Z,994.782
2018-01-24T16:53:01.826Z,994.8519
2018-01-24T16:54:01.838Z,994.8586
2018-01-24T16:55:01.907Z,994.7723
2018-01-24T16:56:02.269Z,994.743
2018-01-24T16:57:01.838Z,994.761
2018-01-24T16:58:01.828Z,994.7933
2018-01-24T16:59:01.837Z,994.7617
2018-01-24T17:00:01.831Z,994.7642
2018-01-24T17:01:01.842Z,994.6445
2018-01-24T17:02:01.873Z,994.6555
2018-01-24T17:03:01.860Z,994.688
2018-01-24T17:04:01.835Z,994.7466
2018-01-24T17:05:01.847Z,994.7737
2018-01-24T17:06:01.839Z,994.7768
2018-01-24T17:07:01.841Z,994.7062
2018-01-24T17:08:01.886Z,994.7695
2018-01-24T17:09:01.840Z,994.7512
2018-01-24T17:10:01.849Z,994.7916
2018-01-24T17:11:01.847Z,994.7656
2018-01-24T17:12:01.843Z,994.7255
2018-01-24T17:13:01.856Z,994.7429
2018-01-24T17:14:01.895Z,994.7391
2018-01-24T17:15:01.910Z,994.7159
2018-01-24T17:16:01.847Z,994.6704
2018-01-24T17:17:01.859Z,994.722
2018-01-24T17:18:01.846Z,994.6872
2018-01-24T17:19:01.862Z,994.6981
2018-01-24T17:20:02.283Z,994.6238
2018-01-24T17:21:01.853Z,994.6956
2018-01-24T17:22:01.891Z,994.6601
2018-01-24T17:23:01.861Z,994.6102
2018-01-24T17:24:01.874Z,994.6844
2018-01-24T17:25:01.856Z,994.687
2018-01-24T17:26:01.897Z,994.6735
2018-01-24T17:27:01.868Z,994.6329
2018-01-24T17:28:01.875Z,994.5757
2018-01-24T17:29:01.872Z,994.6492
2018-01-24T17:30:01.867Z,994.5875
2018-01-24T17:31:01.869Z,994.6535
2018-01-24T17:32:01.897Z,994.4634
2018-01-24T17:33:01.975Z,994.5801
2018-01-24T17:34:01.863Z,994.5302
2018-01-24T17:35:02.331Z,994.5723
2018-01-24T17:36:01.865Z,994.604
2018-01-24T17:37:01.879Z,994.5049
2018-01-24T17:38:01.981Z,994.4631
2018-01-24T17:39:01.872Z,994.529
2018-01-24T17:40:01.870Z,994.5084
2018-01-24T17:41:01.870Z,994.5189
2018-01-24T17:42:01.870Z,994.4927
2018-01-24T17:43:01.872Z,994.4787
2018-01-24T17:44:02.304Z,994.5242
2018-01-24T17:45:01.885Z,994.4451
2018-01-24T17:46:01.875Z,994.4512
2018-01-24T17:47:01.875Z,994.4442
2018-01-24T17:48:01.873Z,994.442
2018-01-24T17:49:01.876Z,994.4087
2018-01-24T17:50:02.305Z,994.3951
2018-01-24T17:51:01.888Z,994.3907
2018-01-24T17:52:01.884Z,994.342
2018-01-24T17:53:01.878Z,994.4556
2018-01-24T17:54:02.052Z,994.3826
2018-01-24T17:55:01.886Z,994.2608
2018-01-24T17:56:01.910Z,994.3437
2018-01-24T17:57:01.879Z,994.3135
2018-01-24T17:58:01.888Z,994.3035
2018-01-24T17:59:01.882Z,994.3088
2018-01-24T18:00:01.886Z,994.3
2018-01-24T18:01:01.887Z,994.2427
2018-01-24T18:02:02.003Z,994.2458
2018-01-24T18:03:01.889Z,994.2186
2018-01-24T18:04:01.891Z,994.1732
2018-01-24T18:05:01.886Z,994.2352
2018-01-24T18:06:01.887Z,994.2635
2018-01-24T18:07:01.892Z,994.3024
2018-01-24T18:08:01.898Z,994.1476
2018-01-24T18:09:01.912Z,994.3137
2018-01-24T18:10:01.904Z,994.2092
2018-01-24T18:11:01.895Z,994.3123
2018-01-24T18:12:01.895Z,994.2166
2018-01-24T18:13:02.280Z,994.2498
2018-01-24T18:14:01.952Z,994.1584
2018-01-24T18:15:01.893Z,994.1539
2018-01-24T18:16:01.905Z,994.1554
2018-01-24T18:17:01.946Z,994.0789
2018-01-24T18:18:01.900Z,994.0846
2018-01-24T18:19:02.389Z,994.1188
2018-01-24T18:20:01.899Z,994.109
2018-01-24T18:21:01.899Z,994.1113
2018-01-24T18:22:01.899Z,994.1007
2018-01-24T18:23:01.900Z,994.0937
2018-01-24T18:24:01.906Z,994.084
2018-01-24T18:25:01.941Z,994.1396
2018-01-24T18:26:01.912Z,994.0902
2018-01-24T18:27:01.905Z,994.075
2018-01-24T18:28:01.912Z,994.0862
2018-01-24T18:29:01.907Z,994.0674
2018-01-24T18:30:01.916Z,993.9996
2018-01-24T18:31:01.946Z,993.9438
2018-01-24T18:32:01.915Z,993.924
2018-01-24T18:33:01.920Z,993.9436
2018-01-24T18:34:01.917Z,994.0344
2018-01-24T18:35:01.913Z,994.0162
2018-01-24T18:36:01.915Z,993.9517
2018-01-24T18:37:02.406Z,993.998
2018-01-24T18:38:01.922Z,993.9542
2018-01-24T18:39:01.925Z,993.8795
2018-01-24T18:40:01.914Z,993.8935
2018-01-24T18:41:01.966Z,993.9155
2018-01-24T18:42:02.279Z,993.9183
2018-01-24T18:43:02.159Z,993.8999
2018-01-24T18:44:01.923Z,993.9207
2018-01-24T18:45:01.941Z,993.8807
2018-01-24T18:46:01.930Z,993.8849
2018-01-24T18:47:01.935Z,993.8928
2018-01-24T18:48:01.923Z,993.8562
2018-01-24T18:49:01.973Z,993.8696
2018-01-24T18:50:01.927Z,993.9073
2018-01-24T18:51:01.923Z,993.8072
2018-01-24T18:52:01.925Z,993.8116
2018-01-24T18:53:01.930Z,993.829
2018-01-24T18:54:01.939Z,993.8551
2018-01-24T18:55:02.064Z,993.8423
2018-01-24T18:56:01.941Z,993.8232
2018-01-24T18:57:01.932Z,993.9113
2018-01-24T18:58:02.382Z,993.8719
2018-01-24T18:59:01.982Z,993.907
2018-01-24T19:00:01.972Z,993.9023
2018-01-24T19:01:02.418Z,993.9415
2018-01-24T19:02:01.931Z,993.904
2018-01-24T19:03:01.929Z,993.8551
2018-01-24T19:04:01.943Z,993.9205
2018-01-24T19:05:01.932Z,993.8115
2018-01-24T19:06:01.940Z,993.9115
2018-01-24T19:07:02.096Z,993.8543
2018-01-24T19:08:01.944Z,993.8242
2018-01-24T19:09:01.952Z,993.7574
2018-01-24T19:10:01.941Z,993.8002
2018-01-24T19:11:01.940Z,993.7054
2018-01-24T19:12:01.950Z,993.7718
2018-01-24T19:13:02.058Z,993.7989
2018-01-24T19:14:01.953Z,993.7514
2018-01-24T19:15:01.974Z,993.781
2018-01-24T19:16:01.948Z,993.8051
2018-01-24T19:17:01.953Z,993.7221
2018-01-24T19:18:01.978Z,993.7186
2018-01-24T19:19:01.984Z,993.6982
2018-01-24T19:20:02.470Z,993.6436
2018-01-24T19:21:01.990Z,993.6082
2018-01-24T19:22:01.946Z,993.6782
2018-01-24T19:23:01.956Z,993.7606
2018-01-24T19:24:01.951Z,993.6135
2018-01-24T19:25:01.988Z,993.6719
2018-01-24T19:26:01.953Z,993.7195
2018-01-24T19:27:01.951Z,993.6876
2018-01-24T19:28:01.963Z,993.6418
2018-01-24T19:29:01.958Z,993.676
2018-01-24T19:30:01.958Z,993.5341
2018-01-24T19:31:01.997Z,993.6304
2018-01-24T19:32:01.960Z,993.5973
2018-01-24T19:33:01.957Z,993.6096
2018-01-24T19:34:02.012Z,993.5629
2018-01-24T19:35:01.981Z,993.606
2018-01-24T19:36:01.959Z,993.5812
2018-01-24T19:37:02.361Z,993.4894
2018-01-24T19:38:01.963Z,993.6104
2018-01-24T19:39:01.971Z,993.4886
2018-01-24T19:40:01.968Z,993.5563
2018-01-24T19:41:01.963Z,993.539
2018-01-24T19:42:01.969Z,993.5804
2018-01-24T19:43:02.163Z,993.5179
2018-01-24T19:44:02.025Z,993.5887
2018-01-24T19:45:01.974Z,993.569
2018-01-24T19:46:01.974Z,993.545
2018-01-24T19:47:01.975Z,993.469
2018-01-24T19:48:01.975Z,993.4593
2018-01-24T19:49:02.009Z,993.4044
2018-01-24T19:50:01.973Z,993.3959
2018-01-24T19:51:02.126Z,993.4049
2018-01-24T19:52:01.977Z,993.3334
2018-01-24T19:53:01.977Z,993.3535
2018-01-24T19:54:01.974Z,993.3021
2018-01-24T19:55:02.028Z,993.3169
2018-01-24T19:56:01.984Z,993.2321
2018-01-24T19:57:01.981Z,993.3398
2018-01-24T19:58:01.975Z,993.2274
2018-01-24T19:59:01.993Z,993.2312
2018-01-24T20:00:01.986Z,993.3237
2018-01-24T20:01:02.386Z,993.3337
